Terminal Aerodrome Forecast
Issued by NWS

Home | Current Version | Previous Version | Graphics & Text | Print | Product List | Glossary On
Versions: 1 2 3 4 5 6 7 8 9 10 11 12 13 14 15 16 17 18 19 20 21 22 23 24 25 26 27
000
FTUS43 KLOT 192334
TAFDPA
TAF
KDPA 192334Z 2000/2024 20012G18KT 6SM -RA BR OVC007 WS015/22050KT
     FM200200 21012KT 5SM -RA BR VCTS OVC007CB WS015/22050KT
     FM200600 21008KT 3SM RA BR VCTS SCT003 OVC007CB
      TEMPO 2008/2012 1SM TSRA BR OVC003CB
     FM201200 21012KT 1SM -SHRA BR OVC003 WS020/22055KT
     FM201600 21012G18KT 1 1/2SM RA BR OVC005 WS020/22055KT
      TEMPO 2016/2020 3/4SM TSRA BR OVC003CB
     FM202100 24011KT 2SM -SHRA BR OVC004=

USA.gov is the U.S. government's official web portal to all federal, state and local government web resources and services.